sensor_id;sensor_type;location;lat;lon;timestamp;temperature;humidity
43561;DHT22;32305;46.410;17.394;2023-11-19T00:00:07;21.10;37.10
43561;DHT22;32305;46.410;17.394;2023-11-19T00:02:39;21.00;37.10
43561;DHT22;32305;46.410;17.394;2023-11-19T00:05:06;21.00;37.00
43561;DHT22;32305;46.410;17.394;2023-11-19T00:07:36;21.00;37.10
43561;DHT22;32305;46.410;17.394;2023-11-19T00:10:03;21.00;37.00
43561;DHT22;32305;46.410;17.394;2023-11-19T00:12:33;21.00;37.10
43561;DHT22;32305;46.410;17.394;2023-11-19T00:15:01;21.00;37.10
43561;DHT22;32305;46.410;17.394;2023-11-19T00:17:28;21.00;37.10
43561;DHT22;32305;46.410;17.394;2023-11-19T00:19:55;21.00;37.10
43561;DHT22;32305;46.410;17.394;2023-11-19T00:22:22;21.00;37.10
43561;DHT22;32305;46.410;17.394;2023-11-19T00:24:49;21.00;37.10
43561;DHT22;32305;46.410;17.394;2023-11-19T00:27:16;21.00;37.20
43561;DHT22;32305;46.410;17.394;2023-11-19T00:29:44;21.00;37.20
43561;DHT22;32305;46.410;17.394;2023-11-19T00:32:14;21.00;37.20
43561;DHT22;32305;46.410;17.394;2023-11-19T00:34:44;21.00;37.20
43561;DHT22;32305;46.410;17.394;2023-11-19T00:37:11;21.00;37.20
43561;DHT22;32305;46.410;17.394;2023-11-19T00:39:39;21.00;37.20
43561;DHT22;32305;46.410;17.394;2023-11-19T00:42:06;21.00;37.20
43561;DHT22;32305;46.410;17.394;2023-11-19T00:44:33;21.00;37.30
43561;DHT22;32305;46.410;17.394;2023-11-19T00:47:00;21.00;37.30
43561;DHT22;32305;46.410;17.394;2023-11-19T00:49:27;21.00;37.30
43561;DHT22;32305;46.410;17.394;2023-11-19T00:51:54;21.00;37.30
43561;DHT22;32305;46.410;17.394;2023-11-19T00:54:21;21.00;37.30
43561;DHT22;32305;46.410;17.394;2023-11-19T00:56:52;21.00;37.30
43561;DHT22;32305;46.410;17.394;2023-11-19T00:59:19;21.00;37.30
43561;DHT22;32305;46.410;17.394;2023-11-19T01:01:46;21.00;37.30
43561;DHT22;32305;46.410;17.394;2023-11-19T01:04:14;21.00;37.30
43561;DHT22;32305;46.410;17.394;2023-11-19T01:06:42;21.00;37.30
43561;DHT22;32305;46.410;17.394;2023-11-19T01:09:12;21.00;37.30
43561;DHT22;32305;46.410;17.394;2023-11-19T01:11:39;21.00;37.30
43561;DHT22;32305;46.410;17.394;2023-11-19T01:14:06;21.00;37.30
43561;DHT22;32305;46.410;17.394;2023-11-19T01:16:32;21.00;37.30
43561;DHT22;32305;46.410;17.394;2023-11-19T01:19:00;21.00;37.30
43561;DHT22;32305;46.410;17.394;2023-11-19T01:21:43;21.00;37.30
43561;DHT22;32305;46.410;17.394;2023-11-19T01:24:10;21.00;37.30
43561;DHT22;32305;46.410;17.394;2023-11-19T01:26:40;21.00;37.90
43561;DHT22;32305;46.410;17.394;2023-11-19T01:29:12;21.00;37.30
43561;DHT22;32305;46.410;17.394;2023-11-19T01:31:41;21.00;37.30
43561;DHT22;32305;46.410;17.394;2023-11-19T01:34:08;21.00;37.40
43561;DHT22;32305;46.410;17.394;2023-11-19T01:36:35;21.00;37.30
43561;DHT22;32305;46.410;17.394;2023-11-19T01:39:02;21.00;37.40
43561;DHT22;32305;46.410;17.394;2023-11-19T01:41:34;20.90;37.30
43561;DHT22;32305;46.410;17.394;2023-11-19T01:44:02;21.00;37.30
43561;DHT22;32305;46.410;17.394;2023-11-19T01:46:30;21.00;37.30
43561;DHT22;32305;46.410;17.394;2023-11-19T01:49:00;20.90;37.30
43561;DHT22;32305;46.410;17.394;2023-11-19T01:51:27;20.90;37.30
43561;DHT22;32305;46.410;17.394;2023-11-19T01:53:54;20.90;37.30
43561;DHT22;32305;46.410;17.394;2023-11-19T01:56:22;20.90;37.30
43561;DHT22;32305;46.410;17.394;2023-11-19T01:58:50;20.90;37.30
43561;DHT22;32305;46.410;17.394;2023-11-19T02:01:17;20.90;37.30
43561;DHT22;32305;46.410;17.394;2023-11-19T02:03:44;20.90;37.30
43561;DHT22;32305;46.410;17.394;2023-11-19T02:06:11;20.90;37.50
43561;DHT22;32305;46.410;17.394;2023-11-19T02:08:38;20.90;37.30
43561;DHT22;32305;46.410;17.394;2023-11-19T02:11:05;20.90;37.30
43561;DHT22;32305;46.410;17.394;2023-11-19T02:13:34;20.90;37.30
43561;DHT22;32305;46.410;17.394;2023-11-19T02:16:03;20.90;37.30
43561;DHT22;32305;46.410;17.394;2023-11-19T02:18:31;20.90;37.30
43561;DHT22;32305;46.410;17.394;2023-11-19T02:20:58;20.90;37.30
43561;DHT22;32305;46.410;17.394;2023-11-19T02:23:26;20.90;37.30
43561;DHT22;32305;46.410;17.394;2023-11-19T02:26:00;20.90;37.30
43561;DHT22;32305;46.410;17.394;2023-11-19T02:28:28;20.90;37.30
43561;DHT22;32305;46.410;17.394;2023-11-19T02:30:55;20.90;37.30
43561;DHT22;32305;46.410;17.394;2023-11-19T02:33:23;20.90;37.40
43561;DHT22;32305;46.410;17.394;2023-11-19T02:35:51;20.90;37.40
43561;DHT22;32305;46.410;17.394;2023-11-19T02:38:18;20.90;37.40
43561;DHT22;32305;46.410;17.394;2023-11-19T02:40:45;20.90;37.40
43561;DHT22;32305;46.410;17.394;2023-11-19T02:43:12;20.90;37.40
43561;DHT22;32305;46.410;17.394;2023-11-19T02:45:40;20.90;37.40
43561;DHT22;32305;46.410;17.394;2023-11-19T02:48:07;20.90;37.40
43561;DHT22;32305;46.410;17.394;2023-11-19T02:50:34;20.90;38.00
43561;DHT22;32305;46.410;17.394;2023-11-19T02:53:01;20.90;37.40
43561;DHT22;32305;46.410;17.394;2023-11-19T02:55:28;20.90;37.40
43561;DHT22;32305;46.410;17.394;2023-11-19T02:58:01;20.90;37.40
43561;DHT22;32305;46.410;17.394;2023-11-19T03:00:32;20.90;37.40
43561;DHT22;32305;46.410;17.394;2023-11-19T03:03:03;20.90;37.30
43561;DHT22;32305;46.410;17.394;2023-11-19T03:05:45;20.90;37.30
43561;DHT22;32305;46.410;17.394;2023-11-19T03:08:14;20.90;37.40
43561;DHT22;32305;46.410;17.394;2023-11-19T03:10:49;20.90;37.40
43561;DHT22;32305;46.410;17.394;2023-11-19T03:13:16;20.90;37.40
43561;DHT22;32305;46.410;17.394;2023-11-19T03:15:46;20.90;37.30
43561;DHT22;32305;46.410;17.394;2023-11-19T03:18:13;20.90;37.30
43561;DHT22;32305;46.410;17.394;2023-11-19T03:20:40;20.90;37.40
43561;DHT22;32305;46.410;17.394;2023-11-19T03:23:07;20.90;37.40
43561;DHT22;32305;46.410;17.394;2023-11-19T03:25:34;20.90;37.40
43561;DHT22;32305;46.410;17.394;2023-11-19T03:28:03;20.90;37.40
43561;DHT22;32305;46.410;17.394;2023-11-19T03:30:30;20.90;37.40
43561;DHT22;32305;46.410;17.394;2023-11-19T03:33:01;20.90;37.40
43561;DHT22;32305;46.410;17.394;2023-11-19T03:35:29;20.90;37.40
43561;DHT22;32305;46.410;17.394;2023-11-19T03:37:57;20.90;37.40
43561;DHT22;32305;46.410;17.394;2023-11-19T03:40:24;20.90;37.40
43561;DHT22;32305;46.410;17.394;2023-11-19T03:42:52;20.90;37.40
43561;DHT22;32305;46.410;17.394;2023-11-19T03:45:19;20.90;37.50
43561;DHT22;32305;46.410;17.394;2023-11-19T03:47:46;20.80;37.40
43561;DHT22;32305;46.410;17.394;2023-11-19T03:50:13;20.80;37.40
43561;DHT22;32305;46.410;17.394;2023-11-19T03:52:42;20.80;37.40
43561;DHT22;32305;46.410;17.394;2023-11-19T03:55:10;20.80;37.40
43561;DHT22;32305;46.410;17.394;2023-11-19T03:57:39;20.80;37.40
43561;DHT22;32305;46.410;17.394;2023-11-19T04:00:06;20.80;37.40
43561;DHT22;32305;46.410;17.394;2023-11-19T04:02:37;20.80;37.40
43561;DHT22;32305;46.410;17.394;2023-11-19T04:05:04;20.80;37.40
43561;DHT22;32305;46.410;17.394;2023-11-19T04:07:32;20.80;37.50
43561;DHT22;32305;46.410;17.394;2023-11-19T04:09:59;20.80;37.40
43561;DHT22;32305;46.410;17.394;2023-11-19T04:12:26;20.80;37.40
43561;DHT22;32305;46.410;17.394;2023-11-19T04:14:53;20.90;37.50
43561;DHT22;32305;46.410;17.394;2023-11-19T04:17:23;20.80;37.40
43561;DHT22;32305;46.410;17.394;2023-11-19T04:19:50;20.80;37.40
43561;DHT22;32305;46.410;17.394;2023-11-19T04:22:17;20.80;37.40
43561;DHT22;32305;46.410;17.394;2023-11-19T04:24:45;20.80;37.40
43561;DHT22;32305;46.410;17.394;2023-11-19T04:27:13;20.80;37.40
43561;DHT22;32305;46.410;17.394;2023-11-19T04:29:40;20.80;37.40
43561;DHT22;32305;46.410;17.394;2023-11-19T04:32:07;20.80;37.50
43561;DHT22;32305;46.410;17.394;2023-11-19T04:34:34;20.80;37.50
43561;DHT22;32305;46.410;17.394;2023-11-19T04:37:02;20.80;37.70
43561;DHT22;32305;46.410;17.394;2023-11-19T04:39:32;20.80;37.30
43561;DHT22;32305;46.410;17.394;2023-11-19T04:41:59;20.80;37.10
43561;DHT22;32305;46.410;17.394;2023-11-19T04:44:26;20.90;37.00
43561;DHT22;32305;46.410;17.394;2023-11-19T04:46:53;20.90;36.80
43561;DHT22;32305;46.410;17.394;2023-11-19T04:49:20;20.90;36.70
43561;DHT22;32305;46.410;17.394;2023-11-19T04:51:48;20.90;36.50
43561;DHT22;32305;46.410;17.394;2023-11-19T04:54:15;21.00;36.40
43561;DHT22;32305;46.410;17.394;2023-11-19T04:56:44;21.00;36.30
43561;DHT22;32305;46.410;17.394;2023-11-19T04:59:11;21.00;36.40
43561;DHT22;32305;46.410;17.394;2023-11-19T05:01:38;21.00;36.40
43561;DHT22;32305;46.410;17.394;2023-11-19T05:04:06;21.00;36.40
43561;DHT22;32305;46.410;17.394;2023-11-19T05:06:34;20.90;36.40
43561;DHT22;32305;46.410;17.394;2023-11-19T05:09:02;20.90;36.40
43561;DHT22;32305;46.410;17.394;2023-11-19T05:11:33;20.90;36.30
43561;DHT22;32305;46.410;17.394;2023-11-19T05:14:02;20.90;36.20
43561;DHT22;32305;46.410;17.394;2023-11-19T05:16:31;20.90;36.20
43561;DHT22;32305;46.410;17.394;2023-11-19T05:18:58;20.90;36.20
43561;DHT22;32305;46.410;17.394;2023-11-19T05:21:25;20.90;36.10
43561;DHT22;32305;46.410;17.394;2023-11-19T05:23:53;20.90;36.10
43561;DHT22;32305;46.410;17.394;2023-11-19T05:26:21;20.90;36.10
43561;DHT22;32305;46.410;17.394;2023-11-19T05:28:49;20.90;36.10
43561;DHT22;32305;46.410;17.394;2023-11-19T05:31:17;20.90;36.00
43561;DHT22;32305;46.410;17.394;2023-11-19T05:33:44;21.00;36.00
43561;DHT22;32305;46.410;17.394;2023-11-19T05:36:11;21.00;35.90
43561;DHT22;32305;46.410;17.394;2023-11-19T05:38:42;21.00;35.90
43561;DHT22;32305;46.410;17.394;2023-11-19T05:41:09;21.00;35.90
43561;DHT22;32305;46.410;17.394;2023-11-19T05:43:36;21.00;35.90
43561;DHT22;32305;46.410;17.394;2023-11-19T05:46:04;21.00;35.80
43561;DHT22;32305;46.410;17.394;2023-11-19T05:48:46;21.00;35.80
43561;DHT22;32305;46.410;17.394;2023-11-19T05:51:13;21.00;35.80
43561;DHT22;32305;46.410;17.394;2023-11-19T05:53:42;21.00;35.90
43561;DHT22;32305;46.410;17.394;2023-11-19T05:56:09;21.00;35.90
43561;DHT22;32305;46.410;17.394;2023-11-19T05:58:36;21.00;35.90
43561;DHT22;32305;46.410;17.394;2023-11-19T06:01:04;21.00;35.80
43561;DHT22;32305;46.410;17.394;2023-11-19T06:03:31;21.10;35.90
43561;DHT22;32305;46.410;17.394;2023-11-19T06:05:59;21.00;35.70
43561;DHT22;32305;46.410;17.394;2023-11-19T06:08:25;21.00;35.60
43561;DHT22;32305;46.410;17.394;2023-11-19T06:10:53;21.10;35.70
43561;DHT22;32305;46.410;17.394;2023-11-19T06:13:20;21.10;35.50
43561;DHT22;32305;46.410;17.394;2023-11-19T06:15:51;21.10;35.50
43561;DHT22;32305;46.410;17.394;2023-11-19T06:18:18;21.10;35.40
43561;DHT22;32305;46.410;17.394;2023-11-19T06:20:47;21.10;35.30
43561;DHT22;32305;46.410;17.394;2023-11-19T06:23:14;21.10;35.30
43561;DHT22;32305;46.410;17.394;2023-11-19T06:25:41;21.10;35.20
43561;DHT22;32305;46.410;17.394;2023-11-19T06:28:08;21.20;35.20
43561;DHT22;32305;46.410;17.394;2023-11-19T06:30:36;21.20;35.20
43561;DHT22;32305;46.410;17.394;2023-11-19T06:33:03;21.20;35.20
43561;DHT22;32305;46.410;17.394;2023-11-19T06:35:30;21.20;35.10
43561;DHT22;32305;46.410;17.394;2023-11-19T06:38:03;21.20;35.10
43561;DHT22;32305;46.410;17.394;2023-11-19T06:40:33;21.20;35.00
43561;DHT22;32305;46.410;17.394;2023-11-19T06:43:02;21.20;35.00
43561;DHT22;32305;46.410;17.394;2023-11-19T06:45:30;21.20;34.90
43561;DHT22;32305;46.410;17.394;2023-11-19T06:47:57;21.20;34.90
43561;DHT22;32305;46.410;17.394;2023-11-19T06:50:27;21.30;34.90
43561;DHT22;32305;46.410;17.394;2023-11-19T06:52:54;21.30;34.90
43561;DHT22;32305;46.410;17.394;2023-11-19T06:55:21;21.30;34.80
43561;DHT22;32305;46.410;17.394;2023-11-19T06:57:48;21.30;34.80
43561;DHT22;32305;46.410;17.394;2023-11-19T07:00:18;21.30;34.80
43561;DHT22;32305;46.410;17.394;2023-11-19T07:02:45;21.30;34.60
43561;DHT22;32305;46.410;17.394;2023-11-19T07:05:12;21.40;34.70
43561;DHT22;32305;46.410;17.394;2023-11-19T07:07:40;21.40;34.60
43561;DHT22;32305;46.410;17.394;2023-11-19T07:10:07;21.40;34.60
43561;DHT22;32305;46.410;17.394;2023-11-19T07:12:36;21.40;34.50
43561;DHT22;32305;46.410;17.394;2023-11-19T07:15:04;21.40;34.50
43561;DHT22;32305;46.410;17.394;2023-11-19T07:17:32;21.40;34.40
43561;DHT22;32305;46.410;17.394;2023-11-19T07:19:59;21.50;34.40
43561;DHT22;32305;46.410;17.394;2023-11-19T07:22:26;21.50;34.50
43561;DHT22;32305;46.410;17.394;2023-11-19T07:24:56;21.50;34.40
43561;DHT22;32305;46.410;17.394;2023-11-19T07:27:23;21.50;34.40
43561;DHT22;32305;46.410;17.394;2023-11-19T07:29:51;21.50;34.40
43561;DHT22;32305;46.410;17.394;2023-11-19T07:32:18;21.50;34.50
43561;DHT22;32305;46.410;17.394;2023-11-19T07:34:45;21.50;34.40
43561;DHT22;32305;46.410;17.394;2023-11-19T07:37:12;21.50;34.40
43561;DHT22;32305;46.410;17.394;2023-11-19T07:39:39;21.50;34.40
43561;DHT22;32305;46.410;17.394;2023-11-19T07:42:08;21.60;34.40
43561;DHT22;32305;46.410;17.394;2023-11-19T07:44:36;21.60;34.30
43561;DHT22;32305;46.410;17.394;2023-11-19T07:47:03;21.60;34.30
43561;DHT22;32305;46.410;17.394;2023-11-19T07:49:31;21.60;34.20
43561;DHT22;32305;46.410;17.394;2023-11-19T07:51:58;21.60;34.20
43561;DHT22;32305;46.410;17.394;2023-11-19T07:54:25;21.60;34.20
43561;DHT22;32305;46.410;17.394;2023-11-19T07:56:52;21.60;34.10
43561;DHT22;32305;46.410;17.394;2023-11-19T07:59:19;21.60;34.00
43561;DHT22;32305;46.410;17.394;2023-11-19T08:01:46;21.60;34.00
43561;DHT22;32305;46.410;17.394;2023-11-19T08:04:13;21.70;34.00
43561;DHT22;32305;46.410;17.394;2023-11-19T08:06:40;21.70;34.00
43561;DHT22;32305;46.410;17.394;2023-11-19T08:09:07;21.70;34.00
43561;DHT22;32305;46.410;17.394;2023-11-19T08:11:41;21.70;33.90
43561;DHT22;32305;46.410;17.394;2023-11-19T08:14:08;21.70;33.90
43561;DHT22;32305;46.410;17.394;2023-11-19T08:16:35;21.70;33.80
43561;DHT22;32305;46.410;17.394;2023-11-19T08:19:04;21.70;33.80
43561;DHT22;32305;46.410;17.394;2023-11-19T08:21:31;21.70;33.80
43561;DHT22;32305;46.410;17.394;2023-11-19T08:23:58;21.70;33.70
43561;DHT22;32305;46.410;17.394;2023-11-19T08:26:25;21.80;33.70
43561;DHT22;32305;46.410;17.394;2023-11-19T08:28:52;21.80;34.20
43561;DHT22;32305;46.410;17.394;2023-11-19T08:31:19;21.80;33.60
43561;DHT22;32305;46.410;17.394;2023-11-19T08:33:46;21.80;33.60
43561;DHT22;32305;46.410;17.394;2023-11-19T08:36:16;21.80;33.60
43561;DHT22;32305;46.410;17.394;2023-11-19T08:38:44;21.80;33.50
43561;DHT22;32305;46.410;17.394;2023-11-19T08:41:11;21.90;33.60
43561;DHT22;32305;46.410;17.394;2023-11-19T08:43:38;21.80;33.50
43561;DHT22;32305;46.410;17.394;2023-11-19T08:46:09;21.90;33.50
43561;DHT22;32305;46.410;17.394;2023-11-19T08:48:36;21.90;33.30
43561;DHT22;32305;46.410;17.394;2023-11-19T08:51:03;22.00;33.40
43561;DHT22;32305;46.410;17.394;2023-11-19T08:53:31;22.00;33.30
43561;DHT22;32305;46.410;17.394;2023-11-19T08:55:58;22.00;33.20
43561;DHT22;32305;46.410;17.394;2023-11-19T08:58:25;22.00;33.10
43561;DHT22;32305;46.410;17.394;2023-11-19T09:00:52;22.10;33.10
43561;DHT22;32305;46.410;17.394;2023-11-19T09:03:19;22.10;33.10
43561;DHT22;32305;46.410;17.394;2023-11-19T09:05:47;22.10;33.10
43561;DHT22;32305;46.410;17.394;2023-11-19T09:08:14;22.10;33.10
43561;DHT22;32305;46.410;17.394;2023-11-19T09:10:41;22.20;33.10
43561;DHT22;32305;46.410;17.394;2023-11-19T09:13:08;22.20;33.00
43561;DHT22;32305;46.410;17.394;2023-11-19T09:15:35;22.20;33.00
43561;DHT22;32305;46.410;17.394;2023-11-19T09:18:02;22.20;32.90
43561;DHT22;32305;46.410;17.394;2023-11-19T09:20:30;22.30;33.00
43561;DHT22;32305;46.410;17.394;2023-11-19T09:23:05;22.20;32.90
43561;DHT22;32305;46.410;17.394;2023-11-19T09:25:33;22.30;32.90
43561;DHT22;32305;46.410;17.394;2023-11-19T09:28:02;22.30;32.80
43561;DHT22;32305;46.410;17.394;2023-11-19T09:30:29;22.30;32.80
43561;DHT22;32305;46.410;17.394;2023-11-19T09:32:57;22.30;32.70
43561;DHT22;32305;46.410;17.394;2023-11-19T09:35:24;22.40;32.70
43561;DHT22;32305;46.410;17.394;2023-11-19T09:37:51;22.30;32.50
43561;DHT22;32305;46.410;17.394;2023-11-19T09:40:18;22.30;32.50
43561;DHT22;32305;46.410;17.394;2023-11-19T09:42:45;22.40;32.50
43561;DHT22;32305;46.410;17.394;2023-11-19T09:45:13;22.40;32.50
43561;DHT22;32305;46.410;17.394;2023-11-19T09:47:45;22.40;32.30
43561;DHT22;32305;46.410;17.394;2023-11-19T09:50:14;22.50;32.30
43561;DHT22;32305;46.410;17.394;2023-11-19T09:52:42;22.50;32.30
43561;DHT22;32305;46.410;17.394;2023-11-19T09:55:10;22.60;32.30
43561;DHT22;32305;46.410;17.394;2023-11-19T09:57:38;22.60;32.20
43561;DHT22;32305;46.410;17.394;2023-11-19T10:00:05;22.60;32.10
43561;DHT22;32305;46.410;17.394;2023-11-19T10:02:33;22.60;31.90
43561;DHT22;32305;46.410;17.394;2023-11-19T10:05:00;22.60;31.90
43561;DHT22;32305;46.410;17.394;2023-11-19T10:07:30;22.70;31.90
43561;DHT22;32305;46.410;17.394;2023-11-19T10:10:00;22.70;31.90
43561;DHT22;32305;46.410;17.394;2023-11-19T10:12:27;22.70;31.80
43561;DHT22;32305;46.410;17.394;2023-11-19T10:14:55;22.80;31.70
43561;DHT22;32305;46.410;17.394;2023-11-19T10:17:32;22.80;31.70
43561;DHT22;32305;46.410;17.394;2023-11-19T10:19:59;22.80;31.70
43561;DHT22;32305;46.410;17.394;2023-11-19T10:22:27;22.80;31.70
43561;DHT22;32305;46.410;17.394;2023-11-19T10:24:54;22.80;31.50
43561;DHT22;32305;46.410;17.394;2023-11-19T10:27:25;22.80;31.60
43561;DHT22;32305;46.410;17.394;2023-11-19T10:29:52;22.80;31.60
43561;DHT22;32305;46.410;17.394;2023-11-19T10:32:20;22.80;31.60
43561;DHT22;32305;46.410;17.394;2023-11-19T10:35:04;22.80;31.40
43561;DHT22;32305;46.410;17.394;2023-11-19T10:37:31;22.80;31.50
43561;DHT22;32305;46.410;17.394;2023-11-19T10:39:59;22.80;31.60
43561;DHT22;32305;46.410;17.394;2023-11-19T10:42:27;22.80;31.50
43561;DHT22;32305;46.410;17.394;2023-11-19T10:44:53;22.80;31.50
43561;DHT22;32305;46.410;17.394;2023-11-19T10:47:20;22.80;31.40
43561;DHT22;32305;46.410;17.394;2023-11-19T10:49:52;22.90;31.50
43561;DHT22;32305;46.410;17.394;2023-11-19T10:52:19;22.90;31.50
43561;DHT22;32305;46.410;17.394;2023-11-19T10:54:50;22.90;31.40
43561;DHT22;32305;46.410;17.394;2023-11-19T10:57:21;22.90;31.30
43561;DHT22;32305;46.410;17.394;2023-11-19T10:59:49;22.90;31.40
43561;DHT22;32305;46.410;17.394;2023-11-19T11:02:19;22.90;31.30
43561;DHT22;32305;46.410;17.394;2023-11-19T11:04:48;22.90;31.20
43561;DHT22;32305;46.410;17.394;2023-11-19T11:07:16;23.00;31.30
43561;DHT22;32305;46.410;17.394;2023-11-19T11:09:46;23.00;31.20
43561;DHT22;32305;46.410;17.394;2023-11-19T11:12:15;23.00;31.10
43561;DHT22;32305;46.410;17.394;2023-11-19T11:14:44;23.00;31.10
43561;DHT22;32305;46.410;17.394;2023-11-19T11:17:12;23.00;31.00
43561;DHT22;32305;46.410;17.394;2023-11-19T11:19:41;23.00;31.10
43561;DHT22;32305;46.410;17.394;2023-11-19T11:22:09;23.00;31.10
43561;DHT22;32305;46.410;17.394;2023-11-19T11:24:45;23.00;31.10
43561;DHT22;32305;46.410;17.394;2023-11-19T11:30:27;23.00;31.10
43561;DHT22;32305;46.410;17.394;2023-11-19T11:33:04;22.90;31.10
43561;DHT22;32305;46.410;17.394;2023-11-19T11:35:49;22.90;31.10
43561;DHT22;32305;46.410;17.394;2023-11-19T11:38:21;22.90;31.20
43561;DHT22;32305;46.410;17.394;2023-11-19T11:49:13;22.90;31.00
43561;DHT22;32305;46.410;17.394;2023-11-19T11:54:28;22.90;31.10
43561;DHT22;32305;46.410;17.394;2023-11-19T11:57:01;22.90;31.10
43561;DHT22;32305;46.410;17.394;2023-11-19T11:59:45;22.90;31.00
43561;DHT22;32305;46.410;17.394;2023-11-19T12:02:15;23.00;31.10
43561;DHT22;32305;46.410;17.394;2023-11-19T12:04:43;22.90;30.90
43561;DHT22;32305;46.410;17.394;2023-11-19T12:07:20;23.00;31.00
43561;DHT22;32305;46.410;17.394;2023-11-19T12:09:52;22.90;31.00
43561;DHT22;32305;46.410;17.394;2023-11-19T12:12:26;22.90;31.10
43561;DHT22;32305;46.410;17.394;2023-11-19T12:15:01;22.90;31.30
43561;DHT22;32305;46.410;17.394;2023-11-19T12:17:43;22.90;31.30
43561;DHT22;32305;46.410;17.394;2023-11-19T12:20:11;22.80;31.30
43561;DHT22;32305;46.410;17.394;2023-11-19T12:22:39;22.80;31.30
43561;DHT22;32305;46.410;17.394;2023-11-19T12:25:08;22.80;31.30
43561;DHT22;32305;46.410;17.394;2023-11-19T12:27:36;22.80;31.30
43561;DHT22;32305;46.410;17.394;2023-11-19T12:30:03;22.80;31.40
43561;DHT22;32305;46.410;17.394;2023-11-19T12:32:37;22.80;31.30
43561;DHT22;32305;46.410;17.394;2023-11-19T12:35:04;22.90;31.40
43561;DHT22;32305;46.410;17.394;2023-11-19T12:37:31;22.80;31.30
43561;DHT22;32305;46.410;17.394;2023-11-19T12:39:58;22.80;31.20
43561;DHT22;32305;46.410;17.394;2023-11-19T12:42:35;22.80;31.20
43561;DHT22;32305;46.410;17.394;2023-11-19T12:45:03;22.80;31.30
43561;DHT22;32305;46.410;17.394;2023-11-19T12:47:30;22.80;31.20
43561;DHT22;32305;46.410;17.394;2023-11-19T12:49:58;22.80;31.20
43561;DHT22;32305;46.410;17.394;2023-11-19T12:52:24;22.80;31.20
43561;DHT22;32305;46.410;17.394;2023-11-19T12:54:52;22.80;31.20
43561;DHT22;32305;46.410;17.394;2023-11-19T12:57:19;22.90;31.20
43561;DHT22;32305;46.410;17.394;2023-11-19T12:59:55;22.80;31.30
43561;DHT22;32305;46.410;17.394;2023-11-19T13:02:23;22.80;31.10
43561;DHT22;32305;46.410;17.394;2023-11-19T13:05:23;22.90;31.30
43561;DHT22;32305;46.410;17.394;2023-11-19T13:08:06;22.80;31.20
43561;DHT22;32305;46.410;17.394;2023-11-19T13:10:33;22.80;31.30
43561;DHT22;32305;46.410;17.394;2023-11-19T13:13:01;22.80;31.20
43561;DHT22;32305;46.410;17.394;2023-11-19T13:15:29;22.80;31.30
43561;DHT22;32305;46.410;17.394;2023-11-19T13:17:56;22.80;31.30
43561;DHT22;32305;46.410;17.394;2023-11-19T13:20:23;22.80;31.30
43561;DHT22;32305;46.410;17.394;2023-11-19T13:22:54;22.80;31.30
43561;DHT22;32305;46.410;17.394;2023-11-19T13:25:21;22.80;31.30
43561;DHT22;32305;46.410;17.394;2023-11-19T13:27:48;22.80;31.30
43561;DHT22;32305;46.410;17.394;2023-11-19T13:30:15;22.80;31.20
43561;DHT22;32305;46.410;17.394;2023-11-19T13:32:45;22.90;31.80
43561;DHT22;32305;46.410;17.394;2023-11-19T13:35:13;22.90;31.10
43561;DHT22;32305;46.410;17.394;2023-11-19T13:37:40;22.90;31.10
43561;DHT22;32305;46.410;17.394;2023-11-19T13:40:07;22.90;31.20
43561;DHT22;32305;46.410;17.394;2023-11-19T13:42:37;22.90;31.20
43561;DHT22;32305;46.410;17.394;2023-11-19T13:45:10;22.90;31.10
43561;DHT22;32305;46.410;17.394;2023-11-19T13:47:39;22.90;31.20
43561;DHT22;32305;46.410;17.394;2023-11-19T13:50:08;22.90;31.30
43561;DHT22;32305;46.410;17.394;2023-11-19T13:52:36;22.90;31.30
43561;DHT22;32305;46.410;17.394;2023-11-19T13:55:05;22.80;31.40
43561;DHT22;32305;46.410;17.394;2023-11-19T13:57:37;22.80;31.40
43561;DHT22;32305;46.410;17.394;2023-11-19T14:00:04;22.80;31.40
43561;DHT22;32305;46.410;17.394;2023-11-19T14:02:40;22.80;31.40
43561;DHT22;32305;46.410;17.394;2023-11-19T14:05:08;22.80;31.50
43561;DHT22;32305;46.410;17.394;2023-11-19T14:07:35;22.80;31.50
43561;DHT22;32305;46.410;17.394;2023-11-19T14:10:02;22.80;31.60
43561;DHT22;32305;46.410;17.394;2023-11-19T14:12:29;22.70;31.70
43561;DHT22;32305;46.410;17.394;2023-11-19T14:14:57;22.70;31.80
43561;DHT22;32305;46.410;17.394;2023-11-19T14:17:24;22.70;31.90
43561;DHT22;32305;46.410;17.394;2023-11-19T14:19:52;22.70;31.90
43561;DHT22;32305;46.410;17.394;2023-11-19T14:22:19;22.70;32.00
43561;DHT22;32305;46.410;17.394;2023-11-19T14:24:46;22.70;32.10
43561;DHT22;32305;46.410;17.394;2023-11-19T14:27:13;22.70;32.10
43561;DHT22;32305;46.410;17.394;2023-11-19T14:29:40;22.70;32.20
43561;DHT22;32305;46.410;17.394;2023-11-19T14:32:07;22.60;32.20
43561;DHT22;32305;46.410;17.394;2023-11-19T14:34:34;22.60;32.30
43561;DHT22;32305;46.410;17.394;2023-11-19T14:37:02;22.60;32.40
43561;DHT22;32305;46.410;17.394;2023-11-19T14:39:30;22.60;32.40
43561;DHT22;32305;46.410;17.394;2023-11-19T14:41:58;22.50;32.40
43561;DHT22;32305;46.410;17.394;2023-11-19T14:44:27;22.60;32.50
43561;DHT22;32305;46.410;17.394;2023-11-19T14:46:55;22.50;32.50
43561;DHT22;32305;46.410;17.394;2023-11-19T14:49:23;22.50;32.50
43561;DHT22;32305;46.410;17.394;2023-11-19T14:51:51;22.50;32.60
43561;DHT22;32305;46.410;17.394;2023-11-19T14:54:18;22.50;32.60
43561;DHT22;32305;46.410;17.394;2023-11-19T14:56:45;22.50;32.70
43561;DHT22;32305;46.410;17.394;2023-11-19T14:59:12;22.40;32.70
43561;DHT22;32305;46.410;17.394;2023-11-19T15:01:40;22.40;32.80
43561;DHT22;32305;46.410;17.394;2023-11-19T15:04:07;22.40;32.90
43561;DHT22;32305;46.410;17.394;2023-11-19T15:06:34;22.40;32.90
43561;DHT22;32305;46.410;17.394;2023-11-19T15:09:01;22.40;33.00
43561;DHT22;32305;46.410;17.394;2023-11-19T15:11:28;22.30;33.10
43561;DHT22;32305;46.410;17.394;2023-11-19T15:13:56;22.30;33.10
43561;DHT22;32305;46.410;17.394;2023-11-19T15:16:23;22.30;33.20
43561;DHT22;32305;46.410;17.394;2023-11-19T15:18:58;22.30;33.30
43561;DHT22;32305;46.410;17.394;2023-11-19T15:21:32;22.20;33.30
43561;DHT22;32305;46.410;17.394;2023-11-19T15:23:59;22.20;33.40
43561;DHT22;32305;46.410;17.394;2023-11-19T15:26:26;22.20;33.40
43561;DHT22;32305;46.410;17.394;2023-11-19T15:28:53;22.20;33.50
43561;DHT22;32305;46.410;17.394;2023-11-19T15:31:25;22.20;33.60
43561;DHT22;32305;46.410;17.394;2023-11-19T15:33:52;22.10;33.60
43561;DHT22;32305;46.410;17.394;2023-11-19T15:36:19;22.10;33.70